createdAt,value
2019-02-15T00:00:15.569Z,71.81
2019-02-15T00:01:15.599Z,71.62
2019-02-15T00:02:15.628Z,71.14
2019-02-15T00:03:15.655Z,71.04
2019-02-15T00:04:15.686Z,71.14
2019-02-15T00:05:15.717Z,71.14
2019-02-15T00:06:15.755Z,71.52
2019-02-15T00:07:15.781Z,71.62
2019-02-15T00:08:15.806Z,71.71
2019-02-15T00:09:15.839Z,71.62
2019-02-15T00:10:15.865Z,71.62
2019-02-15T00:11:15.895Z,71.81
2019-02-15T00:12:15.926Z,71.71
2019-02-15T00:13:15.956Z,72.00
2019-02-15T00:14:15.985Z,71.71
2019-02-15T00:15:16.022Z,72.09
2019-02-15T00:16:16.045Z,72.19
2019-02-15T00:17:16.077Z,71.90
2019-02-15T00:18:16.104Z,71.67
2019-02-15T00:19:16.132Z,71.86
2019-02-15T00:20:16.162Z,71.81
2019-02-15T00:21:16.215Z,71.67
2019-02-15T00:22:16.223Z,71.96
2019-02-15T00:23:16.251Z,72.34
2019-02-15T00:24:16.280Z,72.06
2019-02-15T00:25:16.313Z,72.15
2019-02-15T00:26:16.731Z,71.96
2019-02-15T00:27:16.369Z,72.34
2019-02-15T00:28:16.403Z,72.63
2019-02-15T00:29:16.429Z,72.25
2019-02-15T00:30:16.466Z,72.34
2019-02-15T00:31:16.489Z,72.25
2019-02-15T00:32:16.518Z,73.10
2019-02-15T00:33:16.547Z,73.10
2019-02-15T00:34:16.578Z,72.72
2019-02-15T00:35:16.606Z,72.63
2019-02-15T00:36:16.637Z,73.10
2019-02-15T00:37:16.667Z,73.10
2019-02-15T00:38:16.695Z,72.72
2019-02-15T00:39:16.727Z,72.53
2019-02-15T00:40:16.755Z,72.91
2019-02-15T00:41:16.787Z,73.10
2019-02-15T00:42:16.812Z,73.00
2019-02-15T00:43:22.328Z,73.29
2019-02-15T00:44:16.872Z,73.10
2019-02-15T00:45:16.902Z,73.67
2019-02-15T00:46:16.932Z,73.86
2019-02-15T00:47:16.964Z,73.19
2019-02-15T00:48:16.989Z,73.57
2019-02-15T00:49:17.019Z,73.57
2019-02-15T00:50:17.051Z,73.57
2019-02-15T00:51:17.080Z,73.48
2019-02-15T00:52:17.111Z,73.29
2019-02-15T00:53:17.137Z,73.57
2019-02-15T00:54:17.168Z,73.57
2019-02-15T00:55:17.202Z,73.48
2019-02-15T00:56:17.231Z,73.57
2019-02-15T00:57:17.255Z,73.48
2019-02-15T00:58:17.285Z,73.00
2019-02-15T00:59:17.314Z,73.29
2019-02-15T01:00:17.345Z,73.19
2019-02-15T01:01:17.374Z,73.10
2019-02-15T01:02:17.402Z,73.00
2019-02-15T01:03:17.433Z,73.19
2019-02-15T01:04:17.461Z,72.91
2019-02-15T01:05:17.502Z,73.29
2019-02-15T01:06:17.520Z,73.19
2019-02-15T01:07:17.548Z,73.19
2019-02-15T01:08:17.580Z,73.29
2019-02-15T01:09:17.612Z,72.91
2019-02-15T01:10:17.639Z,72.91
2019-02-15T01:11:17.667Z,72.72
2019-02-15T01:12:17.696Z,73.38
2019-02-15T01:13:17.728Z,73.19
2019-02-15T01:14:17.757Z,73.19
2019-02-15T01:15:17.789Z,73.57
2019-02-15T01:16:17.815Z,73.48
2019-02-15T01:17:17.845Z,73.57
2019-02-15T01:18:17.881Z,73.10
2019-02-15T01:19:17.905Z,73.10
2019-02-15T01:20:17.934Z,73.29
2019-02-15T01:21:17.962Z,73.38
2019-02-15T01:22:17.990Z,73.10
2019-02-15T01:23:18.021Z,72.91
2019-02-15T01:24:18.049Z,73.48
2019-02-15T01:25:18.078Z,73.48
2019-02-15T01:26:18.108Z,73.29
2019-02-15T01:27:18.144Z,73.29
2019-02-15T01:28:18.174Z,73.19
2019-02-15T01:29:18.196Z,73.00
2019-02-15T01:30:18.225Z,73.10
2019-02-15T01:31:18.255Z,73.07
2019-02-15T01:32:18.283Z,72.97
2019-02-15T01:33:18.314Z,73.25
2019-02-15T01:34:18.342Z,73.63
2019-02-15T01:35:18.371Z,73.54
2019-02-15T01:36:18.399Z,73.72
2019-02-15T01:37:18.430Z,73.54
2019-02-15T01:38:18.459Z,73.35
2019-02-15T01:39:18.495Z,73.54
2019-02-15T01:40:18.518Z,73.54
2019-02-15T01:41:18.568Z,73.44
2019-02-15T01:42:18.580Z,73.44
2019-02-15T01:43:18.604Z,73.63
2019-02-15T01:44:18.633Z,73.54
2019-02-15T01:45:18.662Z,73.35
2019-02-15T01:46:18.691Z,73.92
2019-02-15T01:47:18.721Z,73.92
2019-02-15T01:48:18.748Z,73.92
2019-02-15T01:49:18.778Z,74.11
2019-02-15T01:50:18.807Z,73.72
2019-02-15T01:51:18.835Z,74.20
2019-02-15T01:52:18.865Z,74.01
2019-02-15T01:53:18.894Z,73.92
2019-02-15T01:54:18.924Z,74.01
2019-02-15T01:55:18.952Z,73.72
2019-02-15T01:56:18.986Z,73.72
2019-02-15T01:57:19.011Z,73.92
2019-02-15T01:58:19.038Z,73.92
2019-02-15T01:59:19.067Z,73.92
2019-02-15T02:00:19.097Z,74.11
2019-02-15T02:01:19.126Z,74.01
2019-02-15T02:02:19.154Z,74.11
2019-02-15T02:03:19.183Z,74.30
2019-02-15T02:04:19.212Z,74.11
2019-02-15T02:05:19.242Z,74.58
2019-02-15T02:06:19.271Z,74.30
2019-02-15T02:07:19.299Z,74.49
2019-02-15T02:08:19.328Z,74.39
2019-02-15T02:09:19.360Z,74.39
2019-02-15T02:10:19.388Z,74.49
2019-02-15T02:11:19.436Z,74.30
2019-02-15T02:12:19.445Z,74.58
2019-02-15T02:13:19.474Z,74.39
2019-02-15T02:14:19.514Z,74.39
2019-02-15T02:15:19.532Z,74.58
2019-02-15T02:16:19.562Z,74.96
2019-02-15T02:17:19.588Z,75.05
2019-02-15T02:18:19.621Z,74.68
2019-02-15T02:19:19.646Z,74.58
2019-02-15T02:20:19.675Z,74.77
2019-02-15T02:21:19.705Z,74.77
2019-02-15T02:22:19.732Z,74.77
2019-02-15T02:23:19.762Z,74.58
2019-02-15T02:24:19.794Z,74.68
2019-02-15T02:25:19.849Z,74.49
2019-02-15T02:26:19.850Z,74.58
2019-02-15T02:27:19.877Z,74.58
2019-02-15T02:28:19.906Z,74.58
2019-02-15T02:29:19.933Z,74.49
2019-02-15T02:30:19.982Z,74.68
2019-02-15T02:31:19.991Z,74.68
2019-02-15T02:32:20.019Z,74.77
2019-02-15T02:33:20.064Z,75.15
2019-02-15T02:34:20.078Z,75.15
2019-02-15T02:35:20.177Z,75.43
2019-02-15T02:36:20.136Z,75.24
2019-02-15T02:37:20.192Z,75.34
2019-02-15T02:38:20.199Z,75.24
2019-02-15T02:39:20.223Z,75.24
2019-02-15T02:40:20.292Z,75.34
2019-02-15T02:41:20.280Z,75.15
2019-02-15T02:42:20.308Z,74.77
2019-02-15T02:43:20.337Z,74.77
2019-02-15T02:44:20.364Z,74.77
2019-02-15T02:45:20.394Z,74.96
2019-02-15T02:46:20.481Z,75.02
2019-02-15T02:47:20.449Z,75.40
2019-02-15T02:48:20.520Z,75.81
2019-02-15T02:49:20.509Z,75.81
2019-02-15T02:50:20.543Z,76.20
2019-02-15T02:51:20.569Z,75.91
2019-02-15T02:52:20.593Z,75.91
2019-02-15T02:53:20.623Z,76.10
2019-02-15T02:54:20.650Z,76.01
2019-02-15T02:55:20.706Z,75.53
2019-02-15T02:56:20.718Z,76.01
2019-02-15T02:57:20.747Z,75.62
2019-02-15T02:58:20.769Z,76.01
2019-02-15T02:59:20.802Z,75.43
2019-02-15T03:00:20.824Z,75.53
2019-02-15T03:01:20.854Z,76.01
2019-02-15T03:02:20.887Z,75.53
2019-02-15T03:03:20.917Z,75.24
2019-02-15T03:04:20.938Z,75.81
2019-02-15T03:05:20.969Z,75.40
2019-02-15T03:06:20.994Z,75.59
2019-02-15T03:07:21.027Z,75.40
2019-02-15T03:08:28.210Z,75.91
2019-02-15T03:10:25.093Z,75.59
2019-02-15T03:11:25.097Z,75.40
2019-02-15T03:13:29.119Z,75.68
2019-02-15T03:14:29.145Z,75.72
2019-02-15T03:16:33.188Z,75.49
2019-02-15T03:17:33.191Z,75.62
2019-02-15T03:19:26.132Z,75.53
2019-02-15T03:20:31.201Z,75.81
2019-02-15T03:22:30.181Z,75.40
2019-02-15T03:23:30.208Z,75.49
2019-02-15T03:25:34.245Z,75.49
2019-02-15T03:26:34.249Z,75.78
2019-02-15T03:28:38.313Z,75.40
2019-02-15T03:29:38.337Z,75.68
2019-02-15T03:31:42.379Z,75.49
2019-02-15T03:32:42.385Z,75.49
2019-02-15T03:34:46.410Z,75.49
2019-02-15T03:35:46.429Z,75.59
2019-02-15T03:37:50.451Z,75.78
2019-02-15T03:38:50.474Z,75.78
2019-02-15T03:40:54.516Z,75.68
2019-02-15T03:41:54.525Z,75.68
2019-02-15T03:43:58.547Z,75.78
2019-02-15T03:44:58.572Z,75.96
2019-02-15T03:47:02.613Z,75.68
2019-02-15T03:48:02.620Z,75.78
2019-02-15T03:50:06.641Z,75.96
2019-02-15T03:51:06.666Z,75.49
2019-02-15T03:53:10.693Z,75.59
2019-02-15T03:54:10.714Z,75.49
2019-02-15T03:56:14.754Z,75.68
2019-02-15T03:57:14.767Z,75.78
2019-02-15T03:59:07.707Z,75.49
2019-02-15T04:00:07.729Z,75.87
2019-02-15T04:02:11.766Z,75.68
2019-02-15T04:03:11.776Z,75.87
2019-02-15T04:05:15.799Z,75.68
2019-02-15T04:06:15.822Z,75.96
2019-02-15T04:08:19.838Z,76.06
2019-02-15T04:09:19.861Z,75.68
2019-02-15T04:11:23.901Z,75.68
2019-02-15T04:12:23.924Z,75.78
2019-02-15T04:14:32.980Z,75.68
2019-02-15T04:15:27.953Z,75.78
2019-02-15T04:17:32.074Z,75.68
2019-02-15T04:18:31.999Z,75.96
2019-02-15T04:20:36.048Z,75.68
2019-02-15T04:21:36.046Z,76.25
2019-02-15T04:23:40.066Z,75.68
2019-02-15T04:24:40.094Z,75.87
2019-02-15T04:26:44.128Z,75.31
2019-02-15T04:27:44.135Z,75.59
2019-02-15T04:28:44.166Z,76.15
2019-02-15T04:29:44.191Z,75.68
2019-02-15T04:30:44.232Z,75.78
2019-02-15T04:31:44.246Z,75.59
2019-02-15T04:32:44.282Z,75.68
2019-02-15T04:33:44.306Z,75.68
2019-02-15T04:34:44.332Z,75.96
2019-02-15T04:35:44.359Z,75.49
2019-02-15T04:36:44.395Z,75.49
2019-02-15T04:37:44.437Z,75.59
2019-02-15T04:38:44.452Z,75.49
2019-02-15T04:39:44.476Z,75.49
2019-02-15T04:40:44.510Z,75.68
2019-02-15T04:41:44.531Z,75.40
2019-02-15T04:42:44.560Z,75.49
2019-02-15T04:43:44.589Z,75.49
2019-02-15T04:44:44.615Z,75.49
2019-02-15T04:45:44.645Z,75.87
2019-02-15T04:46:44.672Z,75.96
2019-02-15T04:47:44.702Z,75.68
2019-02-15T04:48:44.729Z,76.25
2019-02-15T04:49:44.762Z,75.68
2019-02-15T04:50:44.789Z,75.96
2019-02-15T04:51:44.812Z,76.15
2019-02-15T04:52:44.843Z,75.96
2019-02-15T04:53:44.872Z,75.96
2019-02-15T04:54:44.899Z,75.96
2019-02-15T04:55:44.927Z,75.49
2019-02-15T04:56:44.958Z,75.59
2019-02-15T04:57:44.986Z,75.68
2019-02-15T04:58:45.012Z,75.59
2019-02-15T04:59:45.047Z,75.59
2019-02-15T05:00:45.071Z,75.31
2019-02-15T05:01:45.096Z,75.40
2019-02-15T05:02:45.126Z,75.49
2019-02-15T05:03:45.155Z,75.49
2019-02-15T05:04:45.181Z,75.96
2019-02-15T05:05:45.213Z,75.96
2019-02-15T05:06:45.239Z,75.96
2019-02-15T05:07:45.264Z,75.96
2019-02-15T05:08:45.294Z,76.06
2019-02-15T05:09:45.322Z,75.96
2019-02-15T05:10:45.364Z,75.59
2019-02-15T05:11:45.379Z,75.59
2019-02-15T05:12:45.406Z,75.78
2019-02-15T05:13:45.436Z,76.06
2019-02-15T05:14:52.817Z,75.78
2019-02-15T05:15:45.500Z,75.87
2019-02-15T05:16:45.521Z,75.96
2019-02-15T05:17:45.550Z,76.25
2019-02-15T05:18:45.579Z,76.06
2019-02-15T05:19:45.605Z,76.25
2019-02-15T05:20:45.642Z,76.06
2019-02-15T05:21:45.664Z,75.87
2019-02-15T05:22:45.690Z,75.96
2019-02-15T05:23:45.719Z,75.68
2019-02-15T05:24:45.755Z,76.15
2019-02-15T05:25:45.777Z,75.59
2019-02-15T05:26:45.807Z,75.87
2019-02-15T05:27:45.834Z,75.96
2019-02-15T05:28:45.861Z,75.78
2019-02-15T05:29:45.889Z,76.06
2019-02-15T05:30:45.918Z,75.96
2019-02-15T05:31:45.945Z,75.96
2019-02-15T05:32:45.974Z,76.06
2019-02-15T05:33:46.002Z,75.68
2019-02-15T05:34:46.033Z,76.06
2019-02-15T05:35:46.056Z,76.06
2019-02-15T05:36:46.086Z,75.68
2019-02-15T05:37:46.115Z,75.78
2019-02-15T05:38:46.144Z,75.87
2019-02-15T05:39:46.170Z,75.87
2019-02-15T05:40:46.198Z,76.63
2019-02-15T05:41:46.227Z,76.54
2019-02-15T05:42:46.255Z,75.68
2019-02-15T05:43:46.293Z,75.68
2019-02-15T05:44:46.311Z,75.78
2019-02-15T05:45:46.339Z,75.78
2019-02-15T05:46:46.382Z,75.78
2019-02-15T05:47:46.396Z,75.96
2019-02-15T05:48:46.450Z,75.68
2019-02-15T05:49:46.454Z,75.87
2019-02-15T05:51:22.080Z,75.87
2019-02-15T05:51:47.550Z,75.78
2019-02-15T05:52:46.539Z,75.78
2019-02-15T05:53:46.566Z,75.68
2019-02-15T05:54:46.594Z,76.25
2019-02-15T05:55:46.637Z,76.63
2019-02-15T05:56:46.650Z,76.34
2019-02-15T05:57:46.677Z,76.06
2019-02-15T05:58:46.706Z,76.54
2019-02-15T05:59:46.735Z,77.01
2019-02-15T06:00:46.763Z,76.44
2019-02-15T06:01:46.795Z,76.73
2019-02-15T06:02:46.822Z,76.82
2019-02-15T06:03:47.285Z,76.59
2019-02-15T06:04:46.875Z,76.92
2019-02-15T06:05:46.907Z,76.59
2019-02-15T06:06:46.931Z,77.25
2019-02-15T06:07:46.957Z,77.16
2019-02-15T06:08:46.990Z,77.06
2019-02-15T06:09:47.018Z,77.25
2019-02-15T06:10:47.347Z,77.16
2019-02-15T06:11:47.246Z,77.25
2019-02-15T06:12:47.114Z,76.87
2019-02-15T06:13:47.130Z,77.06
2019-02-15T06:14:47.157Z,76.78
2019-02-15T06:15:47.193Z,76.50
2019-02-15T06:16:47.213Z,76.63
2019-02-15T06:17:47.241Z,76.68
2019-02-15T06:18:47.269Z,76.34
2019-02-15T06:19:47.298Z,76.40
2019-02-15T06:20:47.326Z,76.15
2019-02-15T06:21:47.354Z,76.34
2019-02-15T06:22:47.382Z,76.15
2019-02-15T06:23:47.408Z,76.06
2019-02-15T06:24:47.437Z,76.25
2019-02-15T06:25:47.465Z,77.01
2019-02-15T06:26:47.496Z,76.06
2019-02-15T06:27:47.525Z,76.44
2019-02-15T06:28:47.549Z,76.15
2019-02-15T06:29:47.577Z,75.96
2019-02-15T06:30:47.607Z,76.15
2019-02-15T06:31:47.635Z,76.15
2019-02-15T06:32:47.664Z,76.34
2019-02-15T06:33:47.710Z,76.34
2019-02-15T06:34:47.727Z,76.34
2019-02-15T06:35:47.749Z,76.34
2019-02-15T06:36:47.813Z,76.15
2019-02-15T06:37:47.961Z,76.25
2019-02-15T06:38:47.993Z,76.06
2019-02-15T06:39:47.862Z,76.25
2019-02-15T06:40:48.066Z,76.34
2019-02-15T06:41:47.915Z,76.34
2019-02-15T06:42:47.946Z,76.44
2019-02-15T06:43:48.075Z,76.54
2019-02-15T06:44:48.045Z,76.44
2019-02-15T06:45:48.027Z,76.34
2019-02-15T06:46:48.055Z,76.34
2019-02-15T06:47:48.083Z,76.44
2019-02-15T06:48:48.133Z,76.63
2019-02-15T06:49:48.142Z,76.34
2019-02-15T06:50:48.169Z,76.34
2019-02-15T06:51:48.200Z,76.73
2019-02-15T06:52:48.224Z,76.73
2019-02-15T06:53:48.252Z,76.54
2019-02-15T06:55:24.084Z,77.29
2019-02-15T06:55:48.308Z,77.11
2019-02-15T06:56:48.334Z,76.44
2019-02-15T06:57:48.363Z,76.82
2019-02-15T06:58:48.393Z,76.73
2019-02-15T06:59:48.419Z,76.92
2019-02-15T07:01:09.481Z,76.34
2019-02-15T07:03:31.210Z,75.68
2019-02-15T07:04:31.235Z,75.84
2019-02-15T07:06:35.270Z,76.03
2019-02-15T07:07:35.275Z,75.84
2019-02-15T07:09:28.219Z,75.68
2019-02-15T07:10:28.239Z,75.87
2019-02-15T07:12:32.264Z,75.96
2019-02-15T07:13:32.285Z,75.96
2019-02-15T07:15:36.420Z,75.78
2019-02-15T07:16:36.330Z,75.87
2019-02-15T07:18:40.349Z,75.87
2019-02-15T07:19:40.374Z,76.06
2019-02-15T07:21:44.400Z,75.78
2019-02-15T07:22:44.418Z,75.78
2019-02-15T07:24:48.438Z,75.68
2019-02-15T07:25:48.465Z,75.68
2019-02-15T07:27:52.498Z,75.40
2019-02-15T07:28:52.507Z,75.21
2019-02-15T07:30:56.532Z,74.54
2019-02-15T07:31:56.555Z,74.92
2019-02-15T07:34:00.597Z,74.54
2019-02-15T07:35:00.600Z,74.73
2019-02-15T07:37:04.622Z,74.45
2019-02-15T07:38:04.650Z,74.45
2019-02-15T07:40:08.665Z,73.69
2019-02-15T07:41:08.689Z,74.07
2019-02-15T07:43:12.752Z,73.97
2019-02-15T07:44:12.732Z,73.22
2019-02-15T07:46:16.756Z,73.60
2019-02-15T07:47:16.781Z,73.69
2019-02-15T07:49:09.725Z,73.41
2019-02-15T07:50:09.748Z,73.31
2019-02-15T07:52:13.771Z,73.12
2019-02-15T07:53:13.795Z,73.31
2019-02-15T07:55:16.154Z,73.50
2019-02-15T07:56:15.825Z,73.63
2019-02-15T07:58:17.857Z,73.44
2019-02-15T07:59:17.877Z,73.25
2019-02-15T08:01:19.923Z,72.78
2019-02-15T08:02:19.930Z,72.30
2019-02-15T08:04:21.938Z,72.11
2019-02-15T08:05:23.425Z,72.11
2019-02-15T08:07:23.973Z,72.11
2019-02-15T08:08:23.997Z,72.11
2019-02-15T08:10:25.995Z,71.83
2019-02-15T08:11:26.019Z,71.64
2019-02-15T08:13:28.041Z,71.07
2019-02-15T08:14:28.066Z,71.45
2019-02-15T08:16:30.661Z,71.17
2019-02-15T08:17:30.284Z,71.39
2019-02-15T08:19:22.218Z,71.01
2019-02-15T08:20:22.243Z,70.92
2019-02-15T08:22:24.263Z,71.39
2019-02-15T08:23:24.273Z,71.96
2019-02-15T08:25:26.304Z,71.20
2019-02-15T08:26:26.334Z,71.48
2019-02-15T08:28:28.423Z,70.25
2019-02-15T08:29:28.448Z,70.73
2019-02-15T08:31:31.518Z,70.25
2019-02-15T08:32:31.541Z,69.49
2019-02-15T08:34:33.568Z,69.34
2019-02-15T08:35:33.596Z,69.62
2019-02-15T08:37:35.626Z,69.15
2019-02-15T08:38:35.674Z,69.05
2019-02-15T08:40:37.690Z,68.39
2019-02-15T08:41:37.699Z,68.01
2019-02-15T08:43:39.722Z,68.01
2019-02-15T08:44:39.730Z,68.01
2019-02-15T08:46:41.760Z,67.91
2019-02-15T08:47:41.785Z,66.96
2019-02-15T08:49:33.802Z,66.96
2019-02-15T08:50:33.827Z,66.80
2019-02-15T08:52:25.956Z,66.61
2019-02-15T08:53:25.978Z,66.71
2019-02-15T08:55:29.017Z,66.24
2019-02-15T08:56:29.040Z,66.71
2019-02-15T08:58:31.165Z,65.76
2019-02-15T08:59:31.154Z,65.38
2019-02-15T09:01:33.165Z,64.94
2019-02-15T09:02:33.194Z,64.65
2019-02-15T09:04:35.210Z,64.75
2019-02-15T09:05:35.234Z,65.22
2019-02-15T09:07:37.357Z,65.41
2019-02-15T09:08:37.384Z,65.13
2019-02-15T09:10:41.420Z,64.08
2019-02-15T09:11:41.445Z,63.83
2019-02-15T09:13:45.469Z,62.30
2019-02-15T09:14:45.505Z,62.49
2019-02-15T09:16:49.524Z,61.83
2019-02-15T09:17:49.547Z,61.07
2019-02-15T09:19:42.494Z,61.00
2019-02-15T09:20:42.520Z,60.53
2019-02-15T09:22:46.555Z,59.29
2019-02-15T09:23:46.578Z,59.39
2019-02-15T09:25:50.622Z,59.58
2019-02-15T09:26:50.631Z,59.39
2019-02-15T09:28:54.659Z,57.89
2019-02-15T09:29:54.684Z,57.54
2019-02-15T09:31:58.712Z,54.93
2019-02-15T09:32:58.736Z,53.43
2019-02-15T09:35:02.767Z,50.52
2019-02-15T09:36:02.794Z,49.30
2019-02-15T09:38:06.817Z,46.17
2019-02-15T09:39:06.845Z,45.05
2019-02-15T09:41:10.891Z,44.00
2019-02-15T09:42:10.916Z,43.04
2019-02-15T09:44:14.945Z,43.50
2019-02-15T09:45:14.972Z,43.59
2019-02-15T09:47:19.003Z,43.69
2019-02-15T09:48:19.030Z,43.59
2019-02-15T09:50:23.529Z,45.20
2019-02-15T09:51:23.107Z,44.91
2019-02-15T09:53:27.256Z,45.27
2019-02-15T09:54:27.165Z,45.94
2019-02-15T09:56:31.209Z,46.51
2019-02-15T09:57:31.224Z,46.61
2019-02-15T09:59:24.175Z,46.51
2019-02-15T10:00:24.201Z,46.61
2019-02-15T10:02:28.234Z,46.61
2019-02-15T10:03:28.263Z,46.70
2019-02-15T10:05:32.312Z,46.80
2019-02-15T10:06:32.323Z,46.89
2019-02-15T10:08:36.355Z,46.22
2019-02-15T10:09:36.391Z,46.13
2019-02-15T10:11:40.423Z,45.01
2019-02-15T10:12:40.439Z,44.91
2019-02-15T10:14:45.086Z,45.39
2019-02-15T10:15:44.703Z,46.25
2019-02-15T10:17:48.735Z,45.10
2019-02-15T10:18:48.766Z,45.31
2019-02-15T10:20:52.816Z,44.45
2019-02-15T10:21:52.833Z,43.43
2019-02-15T10:23:56.870Z,42.94
2019-02-15T10:24:56.905Z,42.49
2019-02-15T10:27:00.951Z,41.15
2019-02-15T10:28:00.982Z,40.77
2019-02-15T10:30:05.044Z,40.21
2019-02-15T10:31:05.066Z,39.56
2019-02-15T10:33:09.120Z,38.16
2019-02-15T10:34:09.150Z,37.51
2019-02-15T10:36:13.221Z,34.86
2019-02-15T10:37:13.243Z,33.64
2019-02-15T10:39:06.214Z,29.80
2019-02-15T10:40:06.251Z,27.24
2019-02-15T10:42:10.308Z,23.85
2019-02-15T10:43:10.343Z,22.42
2019-02-15T10:45:14.910Z,17.24
2019-02-15T10:46:14.934Z,17.27
2019-02-15T10:47:24.489Z,14.65
2019-02-15T10:48:15.026Z,15.05
2019-02-15T10:49:15.070Z,14.28
2019-02-15T10:50:15.120Z,13.61
2019-02-15T10:51:15.162Z,12.15
2019-02-15T10:52:15.218Z,11.28
2019-02-15T10:53:15.259Z,11.29
2019-02-15T10:54:15.307Z,10.12
2019-02-15T10:55:15.354Z,9.93
2019-02-15T10:56:15.396Z,9.35
2019-02-15T10:57:15.444Z,8.37
2019-02-15T10:58:15.491Z,8.67
2019-02-15T10:59:15.542Z,7.10
2019-02-15T11:00:15.587Z,7.30
2019-02-15T11:01:15.634Z,6.91
2019-02-15T11:02:15.684Z,6.81
2019-02-15T11:03:15.733Z,6.62
2019-02-15T11:04:15.780Z,5.33
2019-02-15T11:05:15.828Z,6.42
2019-02-15T11:06:15.877Z,4.94
2019-02-15T11:07:15.928Z,5.24
2019-02-15T11:08:15.975Z,5.33
2019-02-15T11:09:16.022Z,6.14
2019-02-15T11:10:16.071Z,5.05
2019-02-15T11:11:16.120Z,4.96
2019-02-15T11:12:16.175Z,4.57
2019-02-15T11:13:16.219Z,3.17
2019-02-15T11:14:16.267Z,3.17
2019-02-15T11:15:16.320Z,4.27
2019-02-15T11:16:16.367Z,3.77
2019-02-15T11:17:16.416Z,3.57
2019-02-15T11:18:16.466Z,4.17
2019-02-15T11:19:16.514Z,3.08
2019-02-15T11:20:16.583Z,2.48
2019-02-15T11:21:16.622Z,2.78
2019-02-15T11:22:16.664Z,2.58
2019-02-15T11:23:16.714Z,3.57
2019-02-15T11:24:16.762Z,3.17
2019-02-15T11:25:16.815Z,2.78
2019-02-15T11:26:24.618Z,2.87
2019-02-15T11:27:16.914Z,2.98
2019-02-15T11:28:16.962Z,2.68
2019-02-15T11:29:17.014Z,2.28
2019-02-15T11:30:17.062Z,2.58
2019-02-15T11:31:17.181Z,2.19
2019-02-15T11:32:17.160Z,2.09
2019-02-15T11:33:17.210Z,1.79
2019-02-15T11:34:17.261Z,1.19
2019-02-15T11:35:17.311Z,0.59
2019-02-15T11:36:17.362Z,1.39
2019-02-15T11:37:17.411Z,0.99
2019-02-15T11:38:17.459Z,0.70
2019-02-15T11:39:17.508Z,0.70
2019-02-15T11:40:17.560Z,0.60
2019-02-15T11:41:17.608Z,0.40
2019-02-15T11:42:17.660Z,0.60
2019-02-15T11:43:17.710Z,0.20
2019-02-15T11:44:17.758Z,0.00
2019-02-15T11:45:17.809Z,0.70
2019-02-15T11:46:17.860Z,0.49
2019-02-15T11:47:17.907Z,0.40
2019-02-15T11:48:17.957Z,0.00
2019-02-15T11:49:18.011Z,0.00
2019-02-15T11:50:18.060Z,0.10
2019-02-15T11:51:18.107Z,0.00
2019-02-15T11:52:18.159Z,0.30
2019-02-15T11:53:18.209Z,0.00
2019-02-15T11:54:23.594Z,0.00
2019-02-15T11:55:18.356Z,0.00
2019-02-15T11:56:18.357Z,0.00
2019-02-15T11:57:18.402Z,0.00
2019-02-15T11:58:18.455Z,0.00
2019-02-15T11:59:18.501Z,0.00
2019-02-15T12:00:21.103Z,0.00
2019-02-15T12:01:18.599Z,0.00
2019-02-15T12:02:18.651Z,0.00
2019-02-15T12:03:18.698Z,0.00
2019-02-15T12:04:18.745Z,0.00
2019-02-15T12:05:18.794Z,0.00
2019-02-15T12:06:18.840Z,0.00
2019-02-15T12:07:18.886Z,0.00
2019-02-15T12:08:18.936Z,0.00
2019-02-15T12:09:18.983Z,0.00
2019-02-15T12:10:19.034Z,0.00
2019-02-15T12:11:19.083Z,0.00
2019-02-15T12:12:19.124Z,0.00
2019-02-15T12:13:19.177Z,0.00
2019-02-15T12:14:19.221Z,0.00
2019-02-15T12:15:19.270Z,0.00
2019-02-15T12:16:19.311Z,0.00
2019-02-15T12:17:19.363Z,0.00
2019-02-15T12:18:19.407Z,0.00
2019-02-15T12:19:19.454Z,0.00
2019-02-15T12:20:19.500Z,0.00
2019-02-15T12:21:19.549Z,0.00
2019-02-15T12:22:19.595Z,0.00
2019-02-15T12:23:19.642Z,0.00
2019-02-15T12:24:19.692Z,0.00
2019-02-15T12:25:19.737Z,0.00
2019-02-15T12:26:19.782Z,0.00
2019-02-15T12:27:19.829Z,0.00
2019-02-15T12:28:19.875Z,0.00
2019-02-15T12:29:19.931Z,0.29
2019-02-15T12:30:19.971Z,0.59
2019-02-15T12:31:20.018Z,0.59
2019-02-15T12:32:20.064Z,1.08
2019-02-15T12:33:20.113Z,1.87
2019-02-15T12:34:20.164Z,1.97
2019-02-15T12:35:20.208Z,3.25
2019-02-15T12:36:20.255Z,2.46
2019-02-15T12:37:20.303Z,3.15
2019-02-15T12:38:20.353Z,2.95
2019-02-15T12:39:20.400Z,2.26
2019-02-15T12:40:20.447Z,2.56
2019-02-15T12:41:20.495Z,3.25
2019-02-15T12:42:20.544Z,2.56
2019-02-15T12:43:20.589Z,3.15
2019-02-15T12:44:20.637Z,2.85
2019-02-15T12:45:20.683Z,2.66
2019-02-15T12:46:20.733Z,2.66
2019-02-15T12:47:20.779Z,2.26
2019-02-15T12:48:20.829Z,2.36
2019-02-15T12:49:20.877Z,2.16
2019-02-15T12:50:20.922Z,2.16
2019-02-15T12:51:20.974Z,2.95
2019-02-15T12:52:21.018Z,2.66
2019-02-15T12:53:21.063Z,2.17
2019-02-15T12:54:21.119Z,1.77
2019-02-15T12:55:21.159Z,1.57
2019-02-15T12:56:21.207Z,1.47
2019-02-15T12:57:21.255Z,2.26
2019-02-15T12:58:21.308Z,2.16
2019-02-15T12:59:21.349Z,2.66
2019-02-15T13:00:21.397Z,2.16
2019-02-15T13:01:21.458Z,2.56
2019-02-15T13:02:21.491Z,2.56
2019-02-15T13:03:21.538Z,2.76
2019-02-15T13:04:21.584Z,2.26
2019-02-15T13:05:21.631Z,1.87
2019-02-15T13:06:28.462Z,1.78
2019-02-15T13:07:21.728Z,1.18
2019-02-15T13:08:21.772Z,0.79
2019-02-15T13:09:21.819Z,1.09
2019-02-15T13:10:21.866Z,0.39
2019-02-15T13:11:21.913Z,0.29
2019-02-15T13:12:21.955Z,0.00
2019-02-15T13:13:22.002Z,0.20
2019-02-15T13:14:22.047Z,0.29
2019-02-15T13:15:22.092Z,0.00
2019-02-15T13:16:22.142Z,0.29
2019-02-15T13:17:24.722Z,0.10
2019-02-15T13:18:22.230Z,0.20
2019-02-15T13:19:22.274Z,0.00
2019-02-15T13:20:22.323Z,0.49
2019-02-15T13:21:22.364Z,1.38
2019-02-15T13:22:22.410Z,0.59
2019-02-15T13:23:22.453Z,1.28
2019-02-15T13:24:22.499Z,0.89
2019-02-15T13:25:22.548Z,1.48
2019-02-15T13:26:22.648Z,1.58
2019-02-15T13:27:22.634Z,1.57
2019-02-15T13:28:22.679Z,1.28
2019-02-15T13:29:22.724Z,0.39
2019-02-15T13:30:22.769Z,0.29
2019-02-15T13:31:23.300Z,0.68
2019-02-15T13:32:22.877Z,1.77
2019-02-15T13:33:22.904Z,1.67
2019-02-15T13:34:22.948Z,2.16
2019-02-15T13:35:22.994Z,2.06
2019-02-15T13:36:23.038Z,2.35
2019-02-15T13:37:23.088Z,3.04
2019-02-15T13:38:23.133Z,2.74
2019-02-15T13:39:23.180Z,2.06
2019-02-15T13:40:23.219Z,2.64
2019-02-15T13:41:24.706Z,2.34
2019-02-15T13:42:23.310Z,2.73
2019-02-15T13:43:23.359Z,2.93
2019-02-15T13:44:23.400Z,3.81
2019-02-15T13:45:23.444Z,3.90
2019-02-15T13:46:23.490Z,4.58
2019-02-15T13:47:23.543Z,4.48
2019-02-15T13:48:23.580Z,4.97
2019-02-15T13:49:23.626Z,4.86
2019-02-15T13:50:23.669Z,4.47
2019-02-15T13:51:23.714Z,4.76
2019-02-15T13:52:23.759Z,5.44
2019-02-15T13:53:23.804Z,5.34
2019-02-15T13:54:23.850Z,5.83
2019-02-15T13:55:23.894Z,6.12
2019-02-15T13:56:23.939Z,5.93
2019-02-15T13:57:23.984Z,4.68
2019-02-15T13:58:24.030Z,5.07
2019-02-15T13:59:24.132Z,4.88
2019-02-15T14:00:24.121Z,4.39
2019-02-15T14:01:24.166Z,4.20
2019-02-15T14:02:24.212Z,3.91
2019-02-15T14:03:24.259Z,3.91
2019-02-15T14:04:24.301Z,4.39
2019-02-15T14:05:24.350Z,4.58
2019-02-15T14:06:24.392Z,5.36
2019-02-15T14:07:24.435Z,6.52
2019-02-15T14:08:24.482Z,6.32
2019-02-15T14:09:24.527Z,7.10
2019-02-15T14:10:24.573Z,6.62
2019-02-15T14:11:24.622Z,6.42
2019-02-15T14:12:24.662Z,6.42
2019-02-15T14:13:24.707Z,6.51
2019-02-15T14:14:24.753Z,6.71
2019-02-15T14:15:24.796Z,7.68
2019-02-15T14:16:24.840Z,8.15
2019-02-15T14:17:24.885Z,8.45
2019-02-15T14:18:24.932Z,8.83
2019-02-15T14:19:24.973Z,9.22
2019-02-15T14:20:25.018Z,9.60
2019-02-15T14:21:25.062Z,10.18
2019-02-15T14:22:25.151Z,9.31
2019-02-15T14:23:25.150Z,9.40
2019-02-15T14:24:25.197Z,9.50
2019-02-15T14:25:25.238Z,9.89
2019-02-15T14:26:25.288Z,9.79
2019-02-15T14:27:25.326Z,9.89
2019-02-15T14:28:25.371Z,10.08
2019-02-15T14:29:25.415Z,10.95
2019-02-15T14:30:25.458Z,10.75
2019-02-15T14:31:25.500Z,10.08
2019-02-15T14:32:25.544Z,10.17
2019-02-15T14:33:25.589Z,10.66
2019-02-15T14:34:25.653Z,10.17
2019-02-15T14:35:25.675Z,10.36
2019-02-15T14:36:25.719Z,10.26
2019-02-15T14:37:25.761Z,10.65
2019-02-15T14:38:25.805Z,9.68
2019-02-15T14:39:25.846Z,10.45
2019-02-15T14:40:25.889Z,11.04
2019-02-15T14:41:25.933Z,11.23
2019-02-15T14:42:25.977Z,10.46
2019-02-15T14:43:26.018Z,9.98
2019-02-15T14:44:26.061Z,9.89